Metz, Missouri
Current Conditions -  °F | °C
As of 3:35 AM on Monday 22 Dec 2014 (Local Time) from KPTS Reporting Station
Haze Haze  
Wind Chill: 40°   Ceiling: 600
Heat Index: NA   Visibility: 5mi
Dew Point: 44°   Wind: 6mph
Humidity: NA   Direction: 150°SSE
Pressure: 29.65"   Gusts: NA
Location:  38°N, 94.44°W
Report Text: KPTS 220935Z AUTO 15005KT 5SM BR BKN006 OVC013 06/07 A2965 RMK AO2 T00630065
Loading
Personal Weather Stations






























Interactive Weather Map New forecast layout! Learn more

10-Day Weather Forecast

Advertisements
Track Severe Weather on mobile